createdAt,value
2023-05-19T00:02:08.768Z,2.30
2023-05-19T00:04:36.721Z,2.60
2023-05-19T00:07:04.418Z,1.83
2023-05-19T00:09:32.058Z,2.10
2023-05-19T00:11:59.644Z,2.10
2023-05-19T00:14:27.221Z,1.77
2023-05-19T00:16:56.397Z,2.00
2023-05-19T00:19:23.602Z,2.20
2023-05-19T00:21:50.813Z,2.25
2023-05-19T00:24:18.141Z,1.70
2023-05-19T00:26:45.249Z,2.10
2023-05-19T00:29:12.368Z,2.20
2023-05-19T00:31:39.708Z,2.00
2023-05-19T00:34:08.241Z,1.85
2023-05-19T00:36:35.429Z,2.05
2023-05-19T00:39:03.677Z,1.95
2023-05-19T00:41:30.882Z,2.30
2023-05-19T00:43:58.059Z,1.90
2023-05-19T00:46:25.257Z,2.08
2023-05-19T00:48:52.465Z,1.77
2023-05-19T00:51:21.747Z,2.00
2023-05-19T00:53:50.198Z,1.73
2023-05-19T00:56:18.269Z,1.80
2023-05-19T00:58:45.579Z,1.60
2023-05-19T01:01:12.988Z,1.73
2023-05-19T01:03:40.959Z,1.95
2023-05-19T01:06:08.418Z,1.92
2023-05-19T01:08:37.873Z,1.98
2023-05-19T01:11:05.981Z,2.00
2023-05-19T01:13:34.330Z,2.10
2023-05-19T01:16:07.537Z,1.95
2023-05-19T01:18:43.465Z,1.75
2023-05-19T01:21:26.053Z,1.80
2023-05-19T01:24:05.828Z,1.77
2023-05-19T01:26:51.298Z,1.98
2023-05-19T01:29:32.844Z,2.00
2023-05-19T01:32:04.642Z,1.63
2023-05-19T01:34:33.227Z,1.90
2023-05-19T01:37:01.229Z,1.90
2023-05-19T01:39:28.564Z,2.00
2023-05-19T01:41:58.170Z,1.90
2023-05-19T01:44:25.632Z,1.90
2023-05-19T01:46:53.275Z,1.90
2023-05-19T01:49:21.903Z,1.63
2023-05-19T01:51:49.296Z,1.90
2023-05-19T01:54:16.456Z,1.80
2023-05-19T01:56:50.243Z,1.80
2023-05-19T01:59:27.818Z,1.80
2023-05-19T02:01:57.818Z,1.83
2023-05-19T02:04:33.930Z,2.08
2023-05-19T02:07:05.496Z,1.88
2023-05-19T02:09:39.061Z,2.05
2023-05-19T02:12:11.663Z,1.95
2023-05-19T02:14:45.326Z,2.00
2023-05-19T02:17:14.530Z,2.00
2023-05-19T02:19:43.586Z,1.60
2023-05-19T02:22:10.761Z,1.90
2023-05-19T02:24:37.858Z,1.70
2023-05-19T02:27:05.768Z,1.83
2023-05-19T02:29:32.927Z,2.13
2023-05-19T02:32:01.148Z,1.70
2023-05-19T02:34:28.313Z,1.90
2023-05-19T02:36:56.800Z,1.92
2023-05-19T02:39:23.916Z,1.80
2023-05-19T02:41:51.017Z,1.80
2023-05-19T02:44:18.180Z,1.88
2023-05-19T02:46:45.441Z,2.03
2023-05-19T02:49:12.744Z,1.65
2023-05-19T02:51:39.985Z,1.70
2023-05-19T02:54:08.529Z,1.88
2023-05-19T02:56:35.664Z,1.73
2023-05-19T02:59:02.804Z,1.75
2023-05-19T03:01:29.959Z,1.58
2023-05-19T03:03:57.121Z,1.83
2023-05-19T03:06:24.415Z,1.60
2023-05-19T03:08:51.544Z,2.13
2023-05-19T03:11:19.992Z,1.90
2023-05-19T03:13:47.164Z,1.55
2023-05-19T03:16:14.341Z,2.15
2023-05-19T03:18:41.686Z,2.10
2023-05-19T03:21:08.890Z,1.63
2023-05-19T03:23:35.986Z,1.70
2023-05-19T03:26:03.198Z,1.70
2023-05-19T03:28:31.713Z,1.70
2023-05-19T03:30:58.830Z,1.88
2023-05-19T03:33:26.063Z,2.00
2023-05-19T03:35:53.408Z,1.77
2023-05-19T03:38:20.515Z,1.67
2023-05-19T03:40:47.637Z,1.80
2023-05-19T03:43:14.788Z,1.98
2023-05-19T03:45:43.343Z,1.77
2023-05-19T03:48:10.485Z,1.77
2023-05-19T03:50:37.628Z,1.80
2023-05-19T03:53:04.741Z,2.03
2023-05-19T03:55:31.901Z,2.25
2023-05-19T03:57:59.028Z,2.05
2023-05-19T04:00:26.124Z,1.80
2023-05-19T04:02:54.785Z,2.30
2023-05-19T04:05:21.988Z,2.40
2023-05-19T04:07:49.126Z,2.28
2023-05-19T04:10:16.269Z,2.75
2023-05-19T04:12:43.469Z,2.42
2023-05-19T04:15:11.398Z,1.95
2023-05-19T04:17:38.831Z,2.08
2023-05-19T04:20:08.315Z,2.00
2023-05-19T04:22:35.451Z,2.10
2023-05-19T04:25:02.788Z,1.75
2023-05-19T04:27:29.953Z,1.95
2023-05-19T04:29:57.106Z,2.38
2023-05-19T04:32:24.257Z,1.90
2023-05-19T04:34:51.457Z,2.38
2023-05-19T04:37:19.961Z,2.67
2023-05-19T04:39:47.095Z,2.40
2023-05-19T04:42:14.330Z,2.47
2023-05-19T04:44:41.482Z,2.25
2023-05-19T04:47:09.199Z,2.40
2023-05-19T04:49:36.889Z,2.70
2023-05-19T04:52:05.344Z,2.42
2023-05-19T04:54:34.406Z,2.05
2023-05-19T04:57:01.593Z,4.50
2023-05-19T04:59:28.702Z,3.30
2023-05-19T05:01:55.861Z,2.92
2023-05-19T05:04:23.791Z,2.85
2023-05-19T05:06:50.893Z,3.30
2023-05-19T05:09:18.424Z,3.08
2023-05-19T05:11:47.643Z,2.95
2023-05-19T05:14:15.340Z,2.88
2023-05-19T05:16:43.139Z,2.80
2023-05-19T05:19:10.994Z,2.58
2023-05-19T05:21:38.640Z,2.75
2023-05-19T05:24:06.690Z,2.80
2023-05-19T05:26:35.108Z,2.53
2023-05-19T05:29:04.038Z,2.35
2023-05-19T05:31:31.138Z,2.60
2023-05-19T05:33:58.436Z,2.65
2023-05-19T05:36:25.680Z,2.38
2023-05-19T05:38:52.803Z,3.05
2023-05-19T05:41:19.962Z,2.75
2023-05-19T05:43:47.084Z,2.53
2023-05-19T05:46:17.070Z,2.50
2023-05-19T05:48:44.796Z,2.33
2023-05-19T05:51:12.473Z,2.60
2023-05-19T05:53:41.678Z,2.40
2023-05-19T05:56:10.436Z,2.25
2023-05-19T05:58:37.517Z,2.70
2023-05-19T06:01:04.796Z,2.60
2023-05-19T06:03:33.379Z,2.42
2023-05-19T06:06:00.677Z,2.33
2023-05-19T06:08:27.949Z,2.42
2023-05-19T06:10:55.119Z,2.28
2023-05-19T06:13:22.264Z,2.47
2023-05-19T06:15:49.543Z,2.00
2023-05-19T06:18:16.748Z,2.25
2023-05-19T06:20:45.202Z,2.50
2023-05-19T06:23:12.310Z,2.35
2023-05-19T06:25:39.554Z,2.10
2023-05-19T06:28:06.657Z,2.08
2023-05-19T06:30:34.000Z,2.30
2023-05-19T06:33:01.314Z,1.98
2023-05-19T06:35:28.504Z,2.03
2023-05-19T06:37:57.015Z,2.30
2023-05-19T06:40:24.253Z,2.58
2023-05-19T06:42:51.351Z,2.10
2023-05-19T06:45:18.488Z,2.50
2023-05-19T06:47:45.686Z,2.20
2023-05-19T06:50:12.936Z,2.30
2023-05-19T06:52:40.163Z,2.53
2023-05-19T06:55:09.147Z,2.20
2023-05-19T06:57:36.263Z,2.30
2023-05-19T07:00:04.323Z,2.42
2023-05-19T07:02:31.674Z,2.05
2023-05-19T07:04:58.866Z,2.33
2023-05-19T07:07:25.991Z,2.03
2023-05-19T07:09:53.134Z,1.92
2023-05-19T07:12:21.617Z,2.20
2023-05-19T07:14:48.734Z,1.80
2023-05-19T07:17:15.938Z,2.17
2023-05-19T07:19:43.048Z,2.40
2023-05-19T07:22:10.170Z,2.50
2023-05-19T07:24:37.309Z,2.20
2023-05-19T07:27:05.227Z,1.73
2023-05-19T07:29:33.745Z,2.08
2023-05-19T07:32:01.062Z,1.92
2023-05-19T07:34:28.253Z,2.00
2023-05-19T07:36:55.504Z,2.25
2023-05-19T07:39:22.661Z,2.22
2023-05-19T07:41:49.798Z,1.92
2023-05-19T07:44:16.985Z,2.10
2023-05-19T07:46:45.472Z,1.90
2023-05-19T07:49:12.616Z,1.92
2023-05-19T07:51:39.827Z,2.05
2023-05-19T07:54:06.998Z,1.85
2023-05-19T07:56:34.113Z,2.03
2023-05-19T07:59:01.262Z,2.22
2023-05-19T08:01:29.754Z,1.92
2023-05-19T08:03:58.348Z,2.10
2023-05-19T08:06:25.785Z,1.80
2023-05-19T08:08:52.938Z,1.90
2023-05-19T08:11:20.062Z,2.03
2023-05-19T08:13:47.198Z,1.88
2023-05-19T08:16:14.361Z,1.60
2023-05-19T08:18:41.949Z,1.73
2023-05-19T08:21:10.439Z,2.08
2023-05-19T08:23:37.601Z,2.10
2023-05-19T08:26:04.909Z,1.98
2023-05-19T08:28:32.022Z,1.60
2023-05-19T08:30:59.182Z,2.03
2023-05-19T08:33:26.315Z,2.20
2023-05-19T08:35:53.490Z,1.73
2023-05-19T08:38:21.998Z,1.85
2023-05-19T08:40:49.312Z,2.08
2023-05-19T08:43:16.494Z,1.85
2023-05-19T08:45:45.437Z,2.00
2023-05-19T08:48:14.483Z,2.08
2023-05-19T08:50:46.634Z,1.60
2023-05-19T08:53:32.442Z,2.00
2023-05-19T08:56:08.712Z,1.90
2023-05-19T08:58:38.050Z,1.80
2023-05-19T09:01:05.247Z,1.55
2023-05-19T09:03:33.545Z,1.80
2023-05-19T09:06:01.111Z,1.92
2023-05-19T09:08:29.443Z,1.67
2023-05-19T09:10:56.621Z,1.70
2023-05-19T09:13:25.161Z,1.52
2023-05-19T09:15:52.934Z,1.63
2023-05-19T09:18:20.068Z,1.95
2023-05-19T09:20:47.247Z,1.60
2023-05-19T09:23:15.149Z,2.10
2023-05-19T09:25:49.320Z,1.80
2023-05-19T09:28:25.046Z,1.73
2023-05-19T09:31:01.882Z,1.70
2023-05-19T09:33:29.390Z,2.17
2023-05-19T09:35:56.939Z,1.60
2023-05-19T09:38:24.843Z,1.75
2023-05-19T09:40:52.336Z,1.58
2023-05-19T09:43:19.493Z,1.58
2023-05-19T09:45:48.019Z,1.58
2023-05-19T09:48:15.388Z,1.65
2023-05-19T09:50:43.491Z,1.80
2023-05-19T09:53:13.716Z,1.70
2023-05-19T09:55:40.872Z,1.60
2023-05-19T09:58:08.104Z,1.90
2023-05-19T10:00:35.771Z,2.28
2023-05-19T10:03:05.181Z,1.92
2023-05-19T10:05:33.656Z,2.00
2023-05-19T10:08:02.096Z,1.73
2023-05-19T10:10:29.291Z,1.90
2023-05-19T10:12:56.562Z,1.60
2023-05-19T10:15:24.532Z,2.25
2023-05-19T10:17:52.556Z,2.70
2023-05-19T10:20:21.175Z,1.55
2023-05-19T10:22:48.382Z,1.48
2023-05-19T10:25:15.679Z,2.03
2023-05-19T10:27:44.888Z,3.38
2023-05-19T10:30:16.473Z,4.05
2023-05-19T10:32:46.527Z,3.80
2023-05-19T10:35:47.270Z,3.15
2023-05-19T10:38:27.507Z,2.00
2023-05-19T10:41:05.476Z,1.80
2023-05-19T10:43:44.495Z,1.50
2023-05-19T10:46:11.784Z,1.60
2023-05-19T10:48:44.765Z,1.40
2023-05-19T10:51:12.063Z,1.73
2023-05-19T10:53:42.740Z,1.50
2023-05-19T10:56:09.941Z,3.38
2023-05-19T10:58:38.486Z,1.92
2023-05-19T11:01:09.046Z,1.70
2023-05-19T11:03:46.669Z,1.70
2023-05-19T11:06:21.866Z,1.77
2023-05-19T11:08:55.176Z,2.50
2023-05-19T11:11:23.367Z,2.88
2023-05-19T11:13:51.626Z,3.28
2023-05-19T11:16:19.872Z,3.72
2023-05-19T11:18:49.957Z,3.75
2023-05-19T11:21:19.540Z,2.47
2023-05-19T11:23:46.878Z,2.10
2023-05-19T11:26:15.409Z,2.80
2023-05-19T11:28:43.013Z,3.00
2023-05-19T11:31:11.295Z,2.03
2023-05-19T11:33:39.811Z,2.50
2023-05-19T11:36:08.570Z,2.47
2023-05-19T11:38:35.716Z,2.30
2023-05-19T11:41:03.706Z,2.17
2023-05-19T11:43:32.197Z,2.50
2023-05-19T11:45:59.464Z,2.22
2023-05-19T11:48:26.761Z,2.05
2023-05-19T11:50:54.092Z,2.05
2023-05-19T11:53:21.514Z,2.20
2023-05-19T11:55:49.178Z,2.33
2023-05-19T11:58:17.000Z,1.70
2023-05-19T12:00:45.755Z,1.70
2023-05-19T12:03:13.236Z,1.92
2023-05-19T12:05:44.918Z,1.60
2023-05-19T12:08:12.645Z,1.88
2023-05-19T12:10:40.433Z,1.40
2023-05-19T12:13:07.930Z,1.35
2023-05-19T12:15:35.340Z,1.75
2023-05-19T12:18:04.232Z,1.40
2023-05-19T12:20:32.455Z,1.30
2023-05-19T12:23:00.809Z,1.52
2023-05-19T12:25:28.756Z,1.70
2023-05-19T12:27:58.346Z,1.38
2023-05-19T12:30:26.976Z,1.88
2023-05-19T12:32:54.726Z,1.60
2023-05-19T12:35:26.247Z,1.50
2023-05-19T12:37:53.751Z,1.20
2023-05-19T12:40:21.395Z,1.58
2023-05-19T12:42:49.890Z,1.33
2023-05-19T12:45:21.071Z,1.35
2023-05-19T12:47:48.934Z,1.48
2023-05-19T12:50:16.148Z,1.48
2023-05-19T12:52:46.614Z,1.55
2023-05-19T12:55:15.037Z,1.30
2023-05-19T12:57:44.049Z,1.10
2023-05-19T13:00:15.259Z,1.20
2023-05-19T13:02:56.202Z,1.80
2023-05-19T13:05:23.778Z,1.70
2023-05-19T13:07:56.769Z,1.35
2023-05-19T13:10:24.518Z,1.45
2023-05-19T13:12:51.969Z,1.60
2023-05-19T13:15:19.102Z,1.55
2023-05-19T13:17:46.265Z,1.40
2023-05-19T13:20:13.612Z,1.40
2023-05-19T13:22:40.900Z,1.30
2023-05-19T13:25:10.411Z,1.30
2023-05-19T13:27:37.853Z,1.27
2023-05-19T13:30:05.980Z,1.17
2023-05-19T13:32:33.195Z,1.20
2023-05-19T13:35:00.767Z,1.02
2023-05-19T13:37:28.226Z,1.10
2023-05-19T13:39:55.785Z,1.38
2023-05-19T13:42:24.546Z,1.27
2023-05-19T13:44:54.872Z,1.40
2023-05-19T13:47:22.775Z,1.20
2023-05-19T13:49:50.172Z,1.20
2023-05-19T13:52:17.800Z,1.20
2023-05-19T13:54:44.935Z,1.30
2023-05-19T13:57:12.079Z,1.35
2023-05-19T13:59:52.982Z,1.33
2023-05-19T14:02:27.821Z,1.40
2023-05-19T14:04:55.013Z,1.15
2023-05-19T14:07:22.148Z,1.23
2023-05-19T14:09:49.243Z,1.10
2023-05-19T14:12:16.430Z,1.40
2023-05-19T14:14:44.916Z,1.20
2023-05-19T14:17:12.050Z,1.02
2023-05-19T14:19:39.185Z,1.23
2023-05-19T14:22:06.847Z,1.20
2023-05-19T14:24:34.601Z,1.30
2023-05-19T14:27:01.786Z,1.20
2023-05-19T14:29:28.917Z,1.15
2023-05-19T14:31:57.796Z,1.08
2023-05-19T14:34:25.045Z,1.10
2023-05-19T14:36:52.259Z,1.20
2023-05-19T14:39:19.390Z,1.02
2023-05-19T14:41:46.568Z,1.13
2023-05-19T14:44:13.706Z,1.10
2023-05-19T14:46:40.866Z,1.13
2023-05-19T14:49:09.466Z,1.10
2023-05-19T14:51:36.592Z,1.10
2023-05-19T14:54:04.035Z,1.27
2023-05-19T14:56:31.443Z,1.30
2023-05-19T14:58:58.593Z,1.13
2023-05-19T15:01:25.769Z,1.40
2023-05-19T15:03:53.064Z,1.40
2023-05-19T15:06:21.595Z,1.55
2023-05-19T15:08:48.814Z,1.30
2023-05-19T15:11:15.921Z,1.20
2023-05-19T15:13:43.171Z,1.33
2023-05-19T15:16:17.713Z,1.60
2023-05-19T15:18:45.621Z,1.20
2023-05-19T15:21:12.840Z,1.40
2023-05-19T15:23:41.480Z,1.67
2023-05-19T15:26:08.725Z,1.40
2023-05-19T15:28:35.833Z,1.10
2023-05-19T15:31:03.008Z,1.33
2023-05-19T15:33:30.158Z,1.20
2023-05-19T15:35:57.331Z,1.30
2023-05-19T15:38:24.486Z,1.20
2023-05-19T15:40:52.966Z,1.20
2023-05-19T15:43:20.121Z,1.13
2023-05-19T15:45:47.300Z,1.15
2023-05-19T15:48:14.688Z,1.20
2023-05-19T15:50:41.827Z,1.20
2023-05-19T15:53:08.912Z,1.33
2023-05-19T15:55:36.056Z,1.40
2023-05-19T15:58:04.533Z,1.42
2023-05-19T16:00:31.676Z,1.50
2023-05-19T16:02:59.011Z,1.13
2023-05-19T16:05:26.290Z,1.35
2023-05-19T16:07:53.410Z,1.10
2023-05-19T16:10:20.544Z,1.30
2023-05-19T16:12:47.674Z,1.17
2023-05-19T16:15:16.301Z,1.27
2023-05-19T16:17:43.505Z,1.40
2023-05-19T16:20:11.425Z,1.38
2023-05-19T16:22:38.667Z,1.58
2023-05-19T16:25:07.451Z,1.48
2023-05-19T16:27:34.553Z,1.42
2023-05-19T16:30:01.750Z,1.50
2023-05-19T16:32:30.361Z,1.52
2023-05-19T16:34:57.478Z,1.20
2023-05-19T16:37:24.667Z,1.40
2023-05-19T16:39:51.799Z,1.50
2023-05-19T16:42:18.941Z,1.20
2023-05-19T16:44:46.046Z,1.20
2023-05-19T16:47:13.229Z,1.20
2023-05-19T16:49:41.722Z,1.27
2023-05-19T16:52:08.878Z,1.30
2023-05-19T16:54:36.244Z,1.30
2023-05-19T16:57:03.800Z,1.15
2023-05-19T16:59:30.919Z,1.38
2023-05-19T17:01:58.134Z,1.30
2023-05-19T17:04:25.401Z,1.27
2023-05-19T17:06:53.837Z,1.60
2023-05-19T17:09:20.993Z,1.30
2023-05-19T17:11:48.101Z,1.50
2023-05-19T17:14:15.488Z,1.20
2023-05-19T17:16:42.675Z,1.55
2023-05-19T17:19:09.991Z,1.60
2023-05-19T17:21:37.336Z,1.60
2023-05-19T17:24:06.474Z,1.40
2023-05-19T17:26:33.671Z,1.23
2023-05-19T17:29:00.816Z,1.35
2023-05-19T17:31:27.953Z,1.40
2023-05-19T17:33:55.043Z,1.45
2023-05-19T17:36:22.131Z,1.40
2023-05-19T17:38:49.268Z,1.40
2023-05-19T17:41:17.765Z,1.40
2023-05-19T17:43:44.896Z,1.50
2023-05-19T17:46:12.062Z,1.70
2023-05-19T17:48:39.217Z,1.50
2023-05-19T17:51:06.401Z,1.20
2023-05-19T17:53:34.340Z,1.20
2023-05-19T17:56:03.455Z,1.52
2023-05-19T17:58:32.673Z,1.40
2023-05-19T18:01:00.334Z,1.40
2023-05-19T18:03:28.012Z,1.50
2023-05-19T18:05:55.557Z,1.60
2023-05-19T18:08:23.195Z,1.50
2023-05-19T18:10:50.594Z,1.55
2023-05-19T18:13:17.757Z,1.63
2023-05-19T18:15:46.309Z,1.65
2023-05-19T18:18:13.465Z,1.60
2023-05-19T18:20:41.489Z,1.48
2023-05-19T18:23:08.676Z,1.70
2023-05-19T18:25:35.853Z,1.67
2023-05-19T18:28:03.041Z,1.60
2023-05-19T18:30:30.226Z,1.42
2023-05-19T18:32:58.692Z,1.83
2023-05-19T18:35:25.844Z,1.40
2023-05-19T18:37:54.882Z,1.55
2023-05-19T18:40:21.973Z,2.20
2023-05-19T18:42:50.199Z,1.60
2023-05-19T18:45:17.367Z,7.05
2023-05-19T18:47:44.543Z,5.07
2023-05-19T18:50:13.044Z,5.10
2023-05-19T18:52:40.392Z,4.93
2023-05-19T18:55:08.257Z,4.72
2023-05-19T18:57:35.408Z,4.70
2023-05-19T19:00:02.688Z,4.63
2023-05-19T19:02:29.852Z,4.95
2023-05-19T19:04:57.286Z,4.75
2023-05-19T19:07:25.942Z,4.90
2023-05-19T19:09:53.081Z,4.65
2023-05-19T19:12:20.490Z,4.97
2023-05-19T19:14:48.072Z,4.90
2023-05-19T19:17:15.335Z,4.75
2023-05-19T19:19:42.758Z,4.55
2023-05-19T19:22:09.972Z,4.43
2023-05-19T19:24:38.451Z,4.25
2023-05-19T19:27:05.664Z,4.63
2023-05-19T19:29:32.807Z,4.10
2023-05-19T19:31:59.999Z,4.13
2023-05-19T19:34:27.146Z,3.92
2023-05-19T19:36:54.309Z,4.07
2023-05-19T19:39:21.444Z,4.18
2023-05-19T19:41:49.897Z,4.22
2023-05-19T19:44:17.056Z,3.97
2023-05-19T19:46:44.220Z,4.05
2023-05-19T19:49:11.409Z,3.85
2023-05-19T19:51:38.637Z,3.45
2023-05-19T19:54:05.755Z,3.53
2023-05-19T19:56:32.865Z,3.40
2023-05-19T19:59:01.346Z,3.80
2023-05-19T20:01:28.595Z,3.60
2023-05-19T20:03:56.442Z,3.80
2023-05-19T20:06:24.078Z,3.28
2023-05-19T20:08:51.209Z,3.28
2023-05-19T20:11:18.356Z,3.30
2023-05-19T20:13:45.481Z,3.40
2023-05-19T20:16:13.967Z,3.20
2023-05-19T20:18:41.179Z,3.50
2023-05-19T20:21:08.402Z,3.03
2023-05-19T20:23:36.838Z,2.80
2023-05-19T20:28:37.050Z,3.03
2023-05-19T20:31:04.780Z,2.70
2023-05-19T20:33:33.306Z,3.10
2023-05-19T20:36:00.582Z,2.70
2023-05-19T20:38:27.697Z,2.70
2023-05-19T20:40:54.853Z,2.80
2023-05-19T20:43:22.010Z,2.50
2023-05-19T20:45:49.207Z,2.90
2023-05-19T20:48:16.402Z,2.72
2023-05-19T20:50:44.933Z,2.75
2023-05-19T20:53:12.032Z,2.50
2023-05-19T20:55:39.238Z,2.65
2023-05-19T20:58:06.577Z,2.78
2023-05-19T21:00:34.068Z,2.47
2023-05-19T21:03:01.632Z,2.50
2023-05-19T21:05:28.996Z,2.47
2023-05-19T21:07:57.518Z,2.13
2023-05-19T21:10:24.628Z,2.38
2023-05-19T21:12:51.905Z,2.42
2023-05-19T21:15:19.219Z,2.40
2023-05-19T21:17:46.441Z,2.15
2023-05-19T21:20:13.595Z,2.28
2023-05-19T21:22:40.738Z,2.38
2023-05-19T21:25:09.829Z,2.17
2023-05-19T21:27:36.944Z,2.05
2023-05-19T21:30:04.524Z,2.53
2023-05-19T21:32:31.671Z,2.33
2023-05-19T21:34:58.989Z,2.08
2023-05-19T21:37:26.214Z,2.10
2023-05-19T21:39:53.313Z,2.30
2023-05-19T21:42:21.799Z,2.10
2023-05-19T21:44:48.926Z,2.60
2023-05-19T21:47:16.149Z,2.20
2023-05-19T21:49:43.432Z,2.30
2023-05-19T21:52:10.563Z,2.20
2023-05-19T21:54:37.692Z,1.80
2023-05-19T21:57:05.286Z,1.80
2023-05-19T21:59:33.766Z,1.80
2023-05-19T22:02:00.906Z,2.15
2023-05-19T22:04:28.069Z,1.98
2023-05-19T22:06:55.175Z,2.10
2023-05-19T22:09:22.297Z,2.38
2023-05-19T22:11:50.428Z,2.35
2023-05-19T22:14:17.656Z,1.90
2023-05-19T22:16:46.187Z,2.10
2023-05-19T22:19:13.437Z,2.20
2023-05-19T22:21:40.630Z,2.00
2023-05-19T22:24:07.756Z,1.92
2023-05-19T22:26:34.902Z,2.00
2023-05-19T22:29:02.134Z,2.10
2023-05-19T22:31:29.508Z,1.80
2023-05-19T22:33:58.014Z,1.90
2023-05-19T22:36:25.190Z,2.17
2023-05-19T22:38:52.312Z,1.98
2023-05-19T22:41:19.544Z,2.03
2023-05-19T22:43:46.756Z,2.17
2023-05-19T22:46:13.975Z,1.90
2023-05-19T22:48:41.636Z,1.90
2023-05-19T22:51:10.160Z,1.98
2023-05-19T22:53:37.523Z,2.00
2023-05-19T22:56:05.310Z,1.77
2023-05-19T22:58:32.471Z,2.17
2023-05-19T23:00:59.583Z,1.90
2023-05-19T23:03:26.766Z,1.92
2023-05-19T23:05:53.906Z,1.80
2023-05-19T23:08:22.361Z,2.03
2023-05-19T23:10:49.468Z,1.95
2023-05-19T23:13:16.565Z,1.95
2023-05-19T23:15:43.683Z,1.90
2023-05-19T23:18:10.855Z,2.00
2023-05-19T23:20:37.971Z,1.85
2023-05-19T23:23:05.168Z,1.73
2023-05-19T23:25:33.864Z,1.83
2023-05-19T23:28:01.166Z,2.28
2023-05-19T23:30:28.282Z,1.88
2023-05-19T23:32:55.436Z,1.80
2023-05-19T23:35:22.637Z,2.00
2023-05-19T23:37:49.808Z,1.95
2023-05-19T23:40:16.990Z,2.00
2023-05-19T23:42:45.455Z,1.95
2023-05-19T23:45:12.604Z,1.70
2023-05-19T23:47:39.874Z,1.60
2023-05-19T23:50:07.451Z,1.80
2023-05-19T23:52:34.589Z,1.70
2023-05-19T23:55:01.721Z,1.67
2023-05-19T23:57:28.858Z,1.65
2023-05-19T23:59:57.356Z,1.98
